createdAt,value
2022-12-29T00:00:07.343Z,142.12
2022-12-29T00:01:07.404Z,141.28
2022-12-29T00:02:07.322Z,140.10
2022-12-29T00:03:07.389Z,139.29
2022-12-29T00:04:12.885Z,137.24
2022-12-29T00:05:08.304Z,135.04
2022-12-29T00:06:07.291Z,131.86
2022-12-29T00:07:07.280Z,127.75
2022-12-29T00:08:07.246Z,125.65
2022-12-29T00:09:07.253Z,121.57
2022-12-29T00:10:07.241Z,117.08
2022-12-29T00:11:07.258Z,113.29
2022-12-29T00:12:07.205Z,110.10
2022-12-29T00:13:07.199Z,106.14
2022-12-29T00:14:07.181Z,102.83
2022-12-29T00:15:07.233Z,100.01
2022-12-29T00:16:07.212Z,95.96
2022-12-29T00:17:07.159Z,94.75
2022-12-29T00:18:07.168Z,90.27
2022-12-29T00:19:07.217Z,85.93
2022-12-29T00:20:07.161Z,81.60
2022-12-29T00:21:07.123Z,76.68
2022-12-29T00:22:07.103Z,70.57
2022-12-29T00:23:07.164Z,64.90
2022-12-29T00:24:07.069Z,61.62
2022-12-29T00:25:07.077Z,59.61
2022-12-29T00:26:07.045Z,57.84
2022-12-29T00:27:07.059Z,55.99
2022-12-29T00:28:07.834Z,54.54
2022-12-29T00:29:07.023Z,52.66
2022-12-29T00:30:07.002Z,51.06
2022-12-29T00:31:07.031Z,49.41
2022-12-29T00:32:06.983Z,48.17
2022-12-29T00:33:06.979Z,46.59
2022-12-29T00:34:06.955Z,44.76
2022-12-29T00:35:06.946Z,42.71
2022-12-29T00:36:06.926Z,40.89
2022-12-29T00:37:06.928Z,39.32
2022-12-29T00:38:06.920Z,38.28
2022-12-29T00:39:06.914Z,37.43
2022-12-29T00:40:06.888Z,36.65
2022-12-29T00:41:06.882Z,35.90
2022-12-29T00:42:06.861Z,35.33
2022-12-29T00:43:06.881Z,34.92
2022-12-29T00:44:06.857Z,34.63
2022-12-29T00:45:06.853Z,34.29
2022-12-29T00:46:06.857Z,33.79
2022-12-29T00:47:06.850Z,33.31
2022-12-29T00:48:06.789Z,32.95
2022-12-29T00:49:06.809Z,32.82
2022-12-29T00:50:06.771Z,32.72
2022-12-29T00:51:06.774Z,32.49
2022-12-29T00:52:06.743Z,32.31
2022-12-29T00:53:06.741Z,32.46
2022-12-29T00:54:06.724Z,32.46
2022-12-29T00:55:06.726Z,32.56
2022-12-29T00:56:06.705Z,32.64
2022-12-29T00:57:06.706Z,32.77
2022-12-29T00:58:06.677Z,33.00
2022-12-29T00:59:06.700Z,33.42
2022-12-29T01:00:06.650Z,33.74
2022-12-29T01:01:06.691Z,34.04
2022-12-29T01:02:06.763Z,34.37
2022-12-29T01:03:06.675Z,34.60
2022-12-29T01:04:06.623Z,34.97
2022-12-29T01:05:06.636Z,35.44
2022-12-29T01:06:06.594Z,35.96
2022-12-29T01:07:06.592Z,36.71
2022-12-29T01:08:06.560Z,37.47
2022-12-29T01:09:06.575Z,38.25
2022-12-29T01:10:06.560Z,39.43
2022-12-29T01:11:06.549Z,40.77
2022-12-29T01:12:06.526Z,41.99
2022-12-29T01:13:06.519Z,43.11
2022-12-29T01:14:06.502Z,44.10
2022-12-29T01:15:06.525Z,44.95
2022-12-29T01:16:06.539Z,45.88
2022-12-29T01:17:06.479Z,46.64
2022-12-29T01:18:06.483Z,47.51
2022-12-29T01:19:06.468Z,48.11
2022-12-29T01:20:06.448Z,49.65
2022-12-29T01:21:06.451Z,50.09
2022-12-29T01:22:06.398Z,50.69
2022-12-29T01:23:06.401Z,51.47
2022-12-29T01:24:06.374Z,50.85
2022-12-29T01:25:06.402Z,50.85
2022-12-29T01:26:06.359Z,52.24
2022-12-29T01:27:06.352Z,54.15
2022-12-29T01:28:06.330Z,55.22
2022-12-29T01:29:06.322Z,56.48
2022-12-29T01:30:06.314Z,58.04
2022-12-29T01:31:06.371Z,59.27
2022-12-29T01:32:06.283Z,60.60
2022-12-29T01:33:06.285Z,60.21
2022-12-29T01:34:06.254Z,60.12
2022-12-29T01:35:06.273Z,58.69
2022-12-29T01:36:06.235Z,58.08
2022-12-29T01:37:06.240Z,56.98
2022-12-29T01:38:06.215Z,57.06
2022-12-29T01:39:06.220Z,57.81
2022-12-29T01:40:06.203Z,58.57
2022-12-29T01:41:06.187Z,59.44
2022-12-29T01:42:06.180Z,59.99
2022-12-29T01:43:06.175Z,61.80
2022-12-29T01:44:06.145Z,64.45
2022-12-29T01:45:06.156Z,67.18
2022-12-29T01:46:06.151Z,68.95
2022-12-29T01:47:06.130Z,68.55
2022-12-29T01:48:06.099Z,65.61
2022-12-29T01:49:06.099Z,64.35
2022-12-29T01:50:06.124Z,64.50
2022-12-29T01:51:06.075Z,65.87
2022-12-29T01:52:06.053Z,66.33
2022-12-29T01:53:06.070Z,68.89
2022-12-29T01:54:06.027Z,71.47
2022-12-29T01:55:06.031Z,74.44
2022-12-29T01:56:06.028Z,76.20
2022-12-29T01:57:06.007Z,75.99
2022-12-29T01:58:06.005Z,72.89
2022-12-29T01:59:06.005Z,72.26
2022-12-29T02:00:05.970Z,72.08
2022-12-29T02:01:06.063Z,70.57
2022-12-29T02:02:05.958Z,67.67
2022-12-29T02:03:05.946Z,64.60
2022-12-29T02:04:05.916Z,63.15
2022-12-29T02:05:05.936Z,61.12
2022-12-29T02:06:05.924Z,58.82
2022-12-29T02:07:05.871Z,61.26
2022-12-29T02:08:05.877Z,65.56
2022-12-29T02:09:05.850Z,65.10
2022-12-29T02:10:05.863Z,65.36
2022-12-29T02:11:05.854Z,65.56
2022-12-29T02:12:05.841Z,66.02
2022-12-29T02:13:05.817Z,67.45
2022-12-29T02:14:05.817Z,70.15
2022-12-29T02:15:05.791Z,72.51
2022-12-29T02:16:05.846Z,75.04
2022-12-29T02:17:05.776Z,80.65
2022-12-29T02:18:05.765Z,86.64
2022-12-29T02:19:05.746Z,90.95
2022-12-29T02:20:05.744Z,90.46
2022-12-29T02:21:05.737Z,91.05
2022-12-29T02:22:05.721Z,94.21
2022-12-29T02:23:05.700Z,95.36
2022-12-29T02:24:05.700Z,97.58
2022-12-29T02:25:05.673Z,96.79
2022-12-29T02:26:05.678Z,98.26
2022-12-29T02:27:05.662Z,99.13
2022-12-29T02:28:05.653Z,102.14
2022-12-29T02:29:05.633Z,107.02
2022-12-29T02:30:05.637Z,110.68
2022-12-29T02:31:05.611Z,112.16
2022-12-29T02:32:05.679Z,112.23
2022-12-29T02:33:05.639Z,112.23
2022-12-29T02:34:05.604Z,110.83
2022-12-29T02:35:05.555Z,109.39
2022-12-29T02:36:05.568Z,108.82
2022-12-29T02:37:05.535Z,108.82
2022-12-29T02:38:05.560Z,108.54
2022-12-29T02:39:05.528Z,106.81
2022-12-29T02:40:05.539Z,105.74
2022-12-29T02:41:05.502Z,105.28
2022-12-29T02:42:05.503Z,106.07
2022-12-29T02:43:05.467Z,106.81
2022-12-29T02:44:05.484Z,106.88
2022-12-29T02:45:05.457Z,106.47
2022-12-29T02:46:05.573Z,105.87
2022-12-29T02:47:05.420Z,106.88
2022-12-29T02:48:05.424Z,109.17
2022-12-29T02:49:05.396Z,109.89
2022-12-29T02:50:05.410Z,111.12
2022-12-29T02:51:05.387Z,112.38
2022-12-29T02:52:05.368Z,113.29
2022-12-29T02:53:05.360Z,115.71
2022-12-29T02:54:05.364Z,117.57
2022-12-29T02:55:05.324Z,118.07
2022-12-29T02:56:05.346Z,118.82
2022-12-29T02:57:05.308Z,119.49
2022-12-29T02:58:05.311Z,121.48
2022-12-29T02:59:05.280Z,124.08
2022-12-29T03:00:05.290Z,125.75
2022-12-29T03:01:05.348Z,125.56
2022-12-29T03:02:05.483Z,126.22
2022-12-29T03:03:05.346Z,128.44
2022-12-29T03:04:05.243Z,129.43
2022-12-29T03:05:05.226Z,129.83
2022-12-29T03:06:05.219Z,131.97
2022-12-29T03:07:05.217Z,132.90
2022-12-29T03:08:05.189Z,134.50
2022-12-29T03:09:05.161Z,134.18
2022-12-29T03:10:06.160Z,135.48
2022-12-29T03:11:05.139Z,133.12
2022-12-29T03:12:05.167Z,132.07
2022-12-29T03:13:05.123Z,129.93
2022-12-29T03:14:05.128Z,128.44
2022-12-29T03:15:05.107Z,128.73
2022-12-29T03:16:05.116Z,125.28
2022-12-29T03:17:05.097Z,123.08
2022-12-29T03:18:05.093Z,120.35
2022-12-29T03:19:05.054Z,117.16
2022-12-29T03:20:05.053Z,114.60
2022-12-29T03:21:05.038Z,113.44
2022-12-29T03:22:05.046Z,111.71
2022-12-29T03:23:05.008Z,109.89
2022-12-29T03:24:05.022Z,107.50
2022-12-29T03:25:04.985Z,104.56
2022-12-29T03:26:04.987Z,102.20
2022-12-29T03:27:04.960Z,99.07
2022-12-29T03:28:04.962Z,96.40
2022-12-29T03:29:04.946Z,93.45
2022-12-29T03:30:04.949Z,92.56
2022-12-29T03:31:04.966Z,89.21
2022-12-29T03:32:04.934Z,85.84
2022-12-29T03:33:04.891Z,82.96
2022-12-29T03:34:04.904Z,81.60
2022-12-29T03:35:04.890Z,79.36
2022-12-29T03:36:04.882Z,76.47
2022-12-29T03:37:04.842Z,73.46
2022-12-29T03:38:04.845Z,69.57
2022-12-29T03:39:04.842Z,65.61
2022-12-29T03:40:04.827Z,61.89
2022-12-29T03:41:04.809Z,58.12
2022-12-29T03:42:04.815Z,54.72
2022-12-29T03:43:04.773Z,52.04
2022-12-29T03:44:04.795Z,49.12
2022-12-29T03:45:04.762Z,46.39
2022-12-29T03:46:04.799Z,44.52
2022-12-29T03:47:04.756Z,42.76
2022-12-29T03:48:04.734Z,41.13
2022-12-29T03:49:04.720Z,39.51
2022-12-29T03:50:04.815Z,37.97
2022-12-29T03:51:04.694Z,36.81
2022-12-29T03:52:04.694Z,35.81
2022-12-29T03:53:04.673Z,34.74
2022-12-29T03:54:04.680Z,33.82
2022-12-29T03:55:04.655Z,32.84
2022-12-29T03:56:04.653Z,32.26
2022-12-29T03:57:04.611Z,31.63
2022-12-29T03:58:04.635Z,31.33
2022-12-29T03:59:04.598Z,30.98
2022-12-29T04:00:04.729Z,30.94
2022-12-29T04:01:04.615Z,31.23
2022-12-29T04:02:04.695Z,32.34
2022-12-29T04:03:04.708Z,33.52
2022-12-29T04:04:04.555Z,34.51
2022-12-29T04:05:04.522Z,35.84
2022-12-29T04:06:04.538Z,36.78
2022-12-29T04:07:04.496Z,37.50
2022-12-29T04:08:04.512Z,38.04
2022-12-29T04:09:04.492Z,38.81
2022-12-29T04:10:04.480Z,39.73
2022-12-29T04:11:04.458Z,40.46
2022-12-29T04:12:04.468Z,40.93
2022-12-29T04:13:04.428Z,40.61
2022-12-29T04:14:04.455Z,40.69
2022-12-29T04:15:04.410Z,40.03
2022-12-29T04:16:04.420Z,39.77
2022-12-29T04:17:04.413Z,38.71
2022-12-29T04:18:04.389Z,37.80
2022-12-29T04:19:04.365Z,37.70
2022-12-29T04:20:04.368Z,37.70
2022-12-29T04:21:04.350Z,37.90
2022-12-29T04:22:04.354Z,38.35
2022-12-29T04:23:04.332Z,39.39
2022-12-29T04:24:04.321Z,40.49
2022-12-29T04:25:04.300Z,41.37
2022-12-29T04:26:04.301Z,41.25
2022-12-29T04:27:04.288Z,41.53
2022-12-29T04:28:04.272Z,41.01
2022-12-29T04:29:04.257Z,40.57
2022-12-29T04:30:04.248Z,40.30
2022-12-29T04:31:04.265Z,41.78
2022-12-29T04:32:04.231Z,42.03
2022-12-29T04:33:04.219Z,41.13
2022-12-29T04:34:04.209Z,40.42
2022-12-29T04:35:04.182Z,40.42
2022-12-29T04:36:04.213Z,40.38
2022-12-29T04:37:04.193Z,40.15
2022-12-29T04:38:04.163Z,40.34
2022-12-29T04:39:04.131Z,40.69
2022-12-29T04:40:04.139Z,40.61
2022-12-29T04:41:04.122Z,39.96
2022-12-29T04:42:04.137Z,39.51
2022-12-29T04:43:04.091Z,39.51
2022-12-29T04:44:04.091Z,40.03
2022-12-29T04:45:04.067Z,40.77
2022-12-29T04:46:04.105Z,41.21
2022-12-29T04:47:04.046Z,41.05
2022-12-29T04:48:04.053Z,40.69
2022-12-29T04:49:04.015Z,40.46
2022-12-29T04:50:04.025Z,39.77
2022-12-29T04:51:03.997Z,39.36
2022-12-29T04:52:04.002Z,38.99
2022-12-29T04:53:03.979Z,38.67
2022-12-29T04:54:03.991Z,37.83
2022-12-29T04:55:03.972Z,36.71
2022-12-29T04:56:03.957Z,35.53
2022-12-29T04:57:03.935Z,34.40
2022-12-29T04:58:03.934Z,33.05
2022-12-29T04:59:03.912Z,31.78
2022-12-29T05:00:03.929Z,30.82
2022-12-29T05:01:03.881Z,29.84
2022-12-29T05:02:04.027Z,29.18
2022-12-29T05:03:03.993Z,28.39
2022-12-29T05:04:03.934Z,27.52
2022-12-29T05:05:03.856Z,26.59
2022-12-29T05:06:03.859Z,25.81
2022-12-29T05:07:03.809Z,25.21
2022-12-29T05:08:03.841Z,24.69
2022-12-29T05:09:03.802Z,24.28
2022-12-29T05:10:03.799Z,23.82
2022-12-29T05:11:03.771Z,23.56
2022-12-29T05:12:03.780Z,23.25
2022-12-29T05:13:03.752Z,22.99
2022-12-29T05:14:03.744Z,22.79
2022-12-29T05:15:03.780Z,22.62
2022-12-29T05:16:03.815Z,22.40
2022-12-29T05:17:03.703Z,22.24
2022-12-29T05:18:03.794Z,22.12
2022-12-29T05:19:03.684Z,22.03
2022-12-29T05:20:03.683Z,21.89
2022-12-29T05:21:03.670Z,21.62
2022-12-29T05:22:03.666Z,21.36
2022-12-29T05:23:03.627Z,21.25
2022-12-29T05:24:03.640Z,21.23
2022-12-29T05:25:03.645Z,21.27
2022-12-29T05:26:03.610Z,21.44
2022-12-29T05:27:03.593Z,21.53
2022-12-29T05:28:03.591Z,21.69
2022-12-29T05:29:03.576Z,21.80
2022-12-29T05:30:03.591Z,21.80
2022-12-29T05:31:03.618Z,21.84
2022-12-29T05:32:03.581Z,21.84
2022-12-29T05:33:03.513Z,21.80
2022-12-29T05:34:03.522Z,21.84
2022-12-29T05:35:03.488Z,21.87
2022-12-29T05:36:03.519Z,21.91
2022-12-29T05:37:03.533Z,22.00
2022-12-29T05:38:03.477Z,21.98
2022-12-29T05:39:03.434Z,21.87
2022-12-29T05:40:03.453Z,21.87
2022-12-29T05:41:03.482Z,21.84
2022-12-29T05:42:03.438Z,21.84
2022-12-29T05:43:03.445Z,21.80
2022-12-29T05:44:03.400Z,21.89
2022-12-29T05:45:03.383Z,21.89
2022-12-29T05:46:03.393Z,21.98
2022-12-29T05:47:03.461Z,22.08
2022-12-29T05:48:03.362Z,22.10
2022-12-29T05:49:03.335Z,22.31
2022-12-29T05:50:03.337Z,22.72
2022-12-29T05:51:03.313Z,23.12
2022-12-29T05:52:03.309Z,23.64
2022-12-29T05:53:03.301Z,24.14
2022-12-29T05:54:03.288Z,24.60
2022-12-29T05:55:03.258Z,25.06
2022-12-29T05:56:03.258Z,25.76
2022-12-29T05:57:03.234Z,26.46
2022-12-29T05:58:03.252Z,27.07
2022-12-29T05:59:03.223Z,27.37
2022-12-29T06:00:03.219Z,27.61
2022-12-29T06:01:03.195Z,27.97
2022-12-29T06:02:03.321Z,28.78
2022-12-29T06:03:03.384Z,29.73
2022-12-29T06:04:03.247Z,30.58
2022-12-29T06:05:03.150Z,31.66
2022-12-29T06:06:03.151Z,32.67
2022-12-29T06:07:03.120Z,33.42
2022-12-29T06:08:03.129Z,33.79
2022-12-29T06:09:03.107Z,33.98
2022-12-29T06:10:03.112Z,33.88
2022-12-29T06:11:03.103Z,33.66
2022-12-29T06:12:03.081Z,33.69
2022-12-29T06:13:03.056Z,33.74
2022-12-29T06:14:03.056Z,33.52
2022-12-29T06:15:03.047Z,33.05
2022-12-29T06:16:03.131Z,32.04
2022-12-29T06:17:03.002Z,31.07
2022-12-29T06:18:03.011Z,30.33
2022-12-29T06:19:02.979Z,29.61
2022-12-29T06:20:03.005Z,28.88
2022-12-29T06:21:02.961Z,28.22
2022-12-29T06:22:02.961Z,27.50
2022-12-29T06:23:02.943Z,26.78
2022-12-29T06:24:02.920Z,26.39
2022-12-29T06:25:05.150Z,25.95
2022-12-29T06:26:02.911Z,25.53
2022-12-29T06:27:02.909Z,25.22
2022-12-29T06:28:02.886Z,24.98
2022-12-29T06:29:02.876Z,24.81
2022-12-29T06:30:02.860Z,24.79
2022-12-29T06:31:02.851Z,24.66
2022-12-29T06:32:02.904Z,24.42
2022-12-29T06:33:02.832Z,24.08
2022-12-29T06:34:08.066Z,23.70
2022-12-29T06:35:03.813Z,23.17
2022-12-29T06:36:02.792Z,22.87
2022-12-29T06:37:02.799Z,22.55
2022-12-29T06:38:02.765Z,22.43
2022-12-29T06:39:02.762Z,22.28
2022-12-29T06:40:02.760Z,22.03
2022-12-29T06:41:02.744Z,21.78
2022-12-29T06:42:02.727Z,21.53
2022-12-29T06:43:02.726Z,21.29
2022-12-29T06:44:02.705Z,21.08
2022-12-29T06:45:02.701Z,20.99
2022-12-29T06:46:02.697Z,20.83
2022-12-29T06:47:02.685Z,20.64
2022-12-29T06:48:02.656Z,20.56
2022-12-29T06:49:02.652Z,20.48
2022-12-29T06:50:02.625Z,20.34
2022-12-29T06:51:02.635Z,20.28
2022-12-29T06:52:05.098Z,20.21
2022-12-29T06:53:03.604Z,20.07
2022-12-29T06:54:02.598Z,19.98
2022-12-29T06:55:02.587Z,19.77
2022-12-29T06:56:02.552Z,19.69
2022-12-29T06:57:02.581Z,19.58
2022-12-29T06:58:02.563Z,19.50
2022-12-29T06:59:02.541Z,19.39
2022-12-29T07:00:02.504Z,19.41
2022-12-29T07:01:02.617Z,19.30
2022-12-29T07:02:02.705Z,19.19
2022-12-29T07:03:02.554Z,19.10
2022-12-29T07:04:02.483Z,19.02
2022-12-29T07:05:02.473Z,18.93
2022-12-29T07:06:02.462Z,18.86
2022-12-29T07:07:02.467Z,18.73
2022-12-29T07:08:02.431Z,18.61
2022-12-29T07:09:02.426Z,18.51
2022-12-29T07:10:02.389Z,18.50
2022-12-29T07:11:02.404Z,18.43
2022-12-29T07:12:02.387Z,18.35
2022-12-29T07:13:02.374Z,18.29
2022-12-29T07:14:02.361Z,18.19
2022-12-29T07:15:02.346Z,18.12
2022-12-29T07:16:02.335Z,18.05
2022-12-29T07:17:02.389Z,18.04
2022-12-29T07:18:02.313Z,18.05
2022-12-29T07:19:02.310Z,18.10
2022-12-29T07:20:02.285Z,18.24
2022-12-29T07:21:02.289Z,18.57
2022-12-29T07:22:02.256Z,20.26
2022-12-29T07:23:02.277Z,23.40
2022-12-29T07:24:02.234Z,27.50
2022-12-29T07:25:02.236Z,32.04
2022-12-29T07:26:02.207Z,37.43
2022-12-29T07:27:02.223Z,42.76
2022-12-29T07:28:02.203Z,47.95
2022-12-29T07:29:02.192Z,52.93
2022-12-29T07:30:02.155Z,58.53
2022-12-29T07:31:02.170Z,63.96
2022-12-29T07:32:02.208Z,68.50
2022-12-29T07:33:02.147Z,71.65
2022-12-29T07:34:02.133Z,73.85
2022-12-29T07:35:02.124Z,79.44
2022-12-29T07:36:02.104Z,84.29
2022-12-29T07:37:02.097Z,88.65
2022-12-29T07:38:02.086Z,94.64
2022-12-29T07:39:02.108Z,99.66
2022-12-29T07:40:02.089Z,104.56
2022-12-29T07:41:02.080Z,110.75
2022-12-29T07:42:05.185Z,115.63
2022-12-29T07:43:02.031Z,123.35
2022-12-29T07:44:02.017Z,129.43
2022-12-29T07:45:02.048Z,137.02
2022-12-29T07:46:01.995Z,142.12
2022-12-29T07:47:02.319Z,147.61
2022-12-29T07:48:01.963Z,152.70
2022-12-29T07:49:01.972Z,157.42
2022-12-29T07:50:01.973Z,164.67
2022-12-29T07:51:01.937Z,168.46
2022-12-29T07:52:01.915Z,176.05
2022-12-29T07:53:01.934Z,180.97
2022-12-29T07:54:01.904Z,183.54
2022-12-29T07:55:01.931Z,184.96
2022-12-29T07:56:01.881Z,190.14
2022-12-29T07:57:01.875Z,201.38
2022-12-29T07:58:01.845Z,207.71
2022-12-29T07:59:01.850Z,213.75
2022-12-29T08:00:01.847Z,216.98
2022-12-29T08:01:01.913Z,218.55
2022-12-29T08:02:01.876Z,219.57
2022-12-29T08:03:01.795Z,222.98
2022-12-29T08:04:01.805Z,225.87
2022-12-29T08:05:01.778Z,229.16
2022-12-29T08:06:01.751Z,230.44
2022-12-29T08:07:01.775Z,236.37
2022-12-29T08:08:01.734Z,240.49
2022-12-29T08:09:08.367Z,243.15
2022-12-29T08:10:02.730Z,241.02
2022-12-29T08:11:01.746Z,238.07
2022-12-29T08:12:01.726Z,231.57
2022-12-29T08:13:01.692Z,231.73
2022-12-29T08:14:01.658Z,237.39
2022-12-29T08:15:01.676Z,239.10
2022-12-29T08:16:01.736Z,239.28
2022-12-29T08:17:01.666Z,237.73
2022-12-29T08:18:01.619Z,239.10
2022-12-29T08:19:01.620Z,241.90
2022-12-29T08:20:01.586Z,241.73
2022-12-29T08:21:01.591Z,236.20
2022-12-29T08:22:01.590Z,231.73
2022-12-29T08:23:01.601Z,230.60
2022-12-29T08:24:01.553Z,230.12
2022-12-29T08:25:01.545Z,223.73
2022-12-29T08:26:01.559Z,219.13
2022-12-29T08:27:09.070Z,219.71
2022-12-29T08:28:02.516Z,223.28
2022-12-29T08:29:01.543Z,222.08
2022-12-29T08:30:01.512Z,221.63
2022-12-29T08:31:01.614Z,226.96
2022-12-29T08:32:01.454Z,232.05
2022-12-29T08:33:01.476Z,235.69
2022-12-29T08:34:01.444Z,240.67
2022-12-29T08:35:01.443Z,244.77
2022-12-29T08:36:01.415Z,246.23
2022-12-29T08:37:01.428Z,247.15
2022-12-29T08:38:01.402Z,252.82
2022-12-29T08:39:01.405Z,257.75
2022-12-29T08:40:01.370Z,257.35
2022-12-29T08:41:01.374Z,256.15
2022-12-29T08:42:01.370Z,259.57
2022-12-29T08:43:01.377Z,265.40
2022-12-29T08:44:01.337Z,268.86
2022-12-29T08:45:01.334Z,269.51
2022-12-29T08:46:01.347Z,267.77
2022-12-29T08:47:01.311Z,264.77
2022-12-29T08:48:01.300Z,262.45
2022-12-29T08:49:01.288Z,262.45
2022-12-29T08:50:01.257Z,262.45
2022-12-29T08:51:01.261Z,263.29
2022-12-29T08:52:01.230Z,267.77
2022-12-29T08:53:01.261Z,267.77
2022-12-29T08:54:01.225Z,271.06
2022-12-29T08:55:01.202Z,274.44
2022-12-29T08:56:05.231Z,279.54
2022-12-29T08:57:01.187Z,282.17
2022-12-29T08:58:01.183Z,284.84
2022-12-29T08:59:01.196Z,287.82
2022-12-29T09:00:01.170Z,285.09
2022-12-29T09:01:01.156Z,284.60
2022-12-29T09:02:01.180Z,290.09
2022-12-29T09:03:01.304Z,294.22
2022-12-29T09:04:17.576Z,293.44
2022-12-29T09:05:02.184Z,288.82
2022-12-29T09:06:01.069Z,291.63
2022-12-29T09:07:01.084Z,301.19
2022-12-29T09:08:01.065Z,313.18
2022-12-29T09:09:01.053Z,320.77
2022-12-29T09:10:01.043Z,322.65
2022-12-29T09:11:01.038Z,322.97
2022-12-29T09:12:01.024Z,324.87
2022-12-29T09:13:01.017Z,325.83
2022-12-29T09:14:00.987Z,323.92
2022-12-29T09:15:00.977Z,321.40
2022-12-29T09:16:01.014Z,319.23
2022-12-29T09:17:01.007Z,321.40
2022-12-29T09:18:00.934Z,322.97
2022-12-29T09:19:00.942Z,323.28
2022-12-29T09:20:00.906Z,327.77
2022-12-29T09:21:00.939Z,331.05
2022-12-29T09:22:00.898Z,333.73
2022-12-29T09:23:00.886Z,338.86
2022-12-29T09:24:00.882Z,340.25
2022-12-29T09:25:00.866Z,340.95
2022-12-29T09:26:00.857Z,339.55
2022-12-29T09:27:00.844Z,344.15
2022-12-29T09:28:00.825Z,341.66
2022-12-29T09:29:00.825Z,341.31
2022-12-29T09:30:00.820Z,336.10
2022-12-29T09:31:00.864Z,327.12
2022-12-29T09:32:00.811Z,315.57
2022-12-29T09:33:00.786Z,305.65
2022-12-29T09:34:00.749Z,304.24
2022-12-29T09:35:00.775Z,301.47
2022-12-29T09:36:00.729Z,300.64
2022-12-29T09:37:00.754Z,300.10
2022-12-29T09:38:00.725Z,299.83
2022-12-29T09:39:00.714Z,298.47
2022-12-29T09:40:00.685Z,301.19
2022-12-29T09:41:00.688Z,300.64
2022-12-29T09:42:00.673Z,299.28
2022-12-29T09:43:00.672Z,295.01
2022-12-29T09:44:00.651Z,293.70
2022-12-29T09:45:00.655Z,290.09
2022-12-29T09:46:00.668Z,286.32
2022-12-29T09:47:00.740Z,282.89
2022-12-29T09:48:04.156Z,280.49
2022-12-29T09:49:01.695Z,280.25
2022-12-29T09:50:00.618Z,282.17
2022-12-29T09:51:00.583Z,276.50
2022-12-29T09:52:00.580Z,269.30
2022-12-29T09:53:00.557Z,255.75
2022-12-29T09:54:00.529Z,251.09
2022-12-29T09:55:06.321Z,255.36
2022-12-29T09:56:01.505Z,267.55
2022-12-29T09:57:00.541Z,278.60
2022-12-29T09:58:00.501Z,288.07
2022-12-29T09:59:00.494Z,293.70
2022-12-29T10:00:00.464Z,293.44
2022-12-29T10:01:00.496Z,291.88
2022-12-29T10:02:00.636Z,286.82
2022-12-29T10:03:00.514Z,281.45
2022-12-29T10:04:00.421Z,280.25
2022-12-29T10:05:00.447Z,288.32
2022-12-29T10:06:00.421Z,285.58
2022-12-29T10:08:01.371Z,288.57
2022-12-29T10:09:00.379Z,297.13
2022-12-29T10:10:00.350Z,314.97
2022-12-29T10:11:00.348Z,329.40
2022-12-29T10:12:00.346Z,333.39
2022-12-29T10:13:00.339Z,327.12
2022-12-29T10:14:00.301Z,318.92
2022-12-29T10:15:00.332Z,311.70
2022-12-29T10:16:00.332Z,318.92
2022-12-29T10:17:00.298Z,330.06
2022-12-29T10:18:00.262Z,334.74
2022-12-29T10:19:00.252Z,336.10
2022-12-29T10:20:00.232Z,332.72
2022-12-29T10:21:00.235Z,337.13
2022-12-29T10:22:00.206Z,333.05
2022-12-29T10:23:00.227Z,333.39
2022-12-29T10:24:00.189Z,336.44
2022-12-29T10:25:00.184Z,334.74
2022-12-29T10:26:00.164Z,335.08
2022-12-29T10:27:00.176Z,331.05
2022-12-29T10:28:00.142Z,333.39
2022-12-29T10:29:00.137Z,329.73
2022-12-29T10:30:00.153Z,324.55
2022-12-29T10:31:05.101Z,329.40
2022-12-29T10:32:01.180Z,330.39
2022-12-29T10:33:00.132Z,340.25
2022-12-29T10:34:00.119Z,344.51
2022-12-29T10:35:00.075Z,348.50
2022-12-29T10:36:00.045Z,350.35
2022-12-29T10:37:00.119Z,353.72
2022-12-29T10:38:00.060Z,360.28
2022-12-29T10:39:00.035Z,366.67
2022-12-29T10:40:00.018Z,367.49
2022-12-29T10:40:59.989Z,370.37
2022-12-29T10:42:00.011Z,372.46
2022-12-29T10:42:59.978Z,381.72
2022-12-29T10:43:59.982Z,391.51
2022-12-29T10:44:59.943Z,395.66
2022-12-29T10:46:00.019Z,405.20
2022-12-29T10:46:59.950Z,411.15
2022-12-29T10:47:59.932Z,411.66
2022-12-29T10:48:59.904Z,419.89
2022-12-29T10:49:59.914Z,420.15
2022-12-29T10:51:02.032Z,418.06
2022-12-29T10:51:59.886Z,417.28
2022-12-29T10:52:59.884Z,411.41
2022-12-29T10:53:59.870Z,414.96
2022-12-29T10:54:59.826Z,417.80
2022-12-29T10:55:59.836Z,418.32
2022-12-29T10:56:59.823Z,412.16
2022-12-29T10:57:59.815Z,417.28
2022-12-29T10:58:59.779Z,423.87
2022-12-29T10:59:59.789Z,426.83
2022-12-29T11:00:59.794Z,430.11
2022-12-29T11:01:59.995Z,428.46
2022-12-29T11:02:59.907Z,430.66
2022-12-29T11:03:59.779Z,434.00
2022-12-29T11:04:59.738Z,435.12
2022-12-29T11:05:59.716Z,440.25
2022-12-29T11:06:59.712Z,444.33
2022-12-29T11:07:59.699Z,448.48
2022-12-29T11:08:59.670Z,446.40
2022-12-29T11:09:59.678Z,441.12
2022-12-29T11:10:59.645Z,424.40
2022-12-29T11:11:59.668Z,394.50
2022-12-29T11:12:59.629Z,364.25
2022-12-29T11:13:59.644Z,343.43
2022-12-29T11:14:59.598Z,348.14
2022-12-29T11:15:59.614Z,364.25
2022-12-29T11:16:59.653Z,381.29
2022-12-29T11:17:59.582Z,392.65
2022-12-29T11:18:59.557Z,409.65
2022-12-29T11:19:59.580Z,419.11
2022-12-29T11:20:59.534Z,420.94
2022-12-29T11:21:59.523Z,423.33
2022-12-29T11:22:59.527Z,424.67
2022-12-29T11:23:59.529Z,427.10
2022-12-29T11:24:59.487Z,439.68
2022-12-29T11:25:59.494Z,449.68
2022-12-29T11:26:59.470Z,459.21
2022-12-29T11:27:59.513Z,456.10
2022-12-29T11:28:59.456Z,452.41
2022-12-29T11:29:59.441Z,448.48
2022-12-29T11:30:59.412Z,445.51
2022-12-29T11:31:59.469Z,443.74
2022-12-29T11:32:59.400Z,447.89
2022-12-29T11:33:59.395Z,457.34
2022-12-29T11:34:59.369Z,463.65
2022-12-29T11:35:59.380Z,467.20
2022-12-29T11:36:59.353Z,474.79
2022-12-29T11:37:59.380Z,486.13
2022-12-29T11:38:59.330Z,486.13
2022-12-29T11:39:59.360Z,488.60
2022-12-29T11:40:59.307Z,484.03
2022-12-29T11:41:59.325Z,484.72
2022-12-29T11:42:59.296Z,488.60
2022-12-29T11:43:59.293Z,491.82
2022-12-29T11:44:59.262Z,496.18
2022-12-29T11:45:59.351Z,490.39
2022-12-29T11:46:59.267Z,492.54
2022-12-29T11:47:59.253Z,497.28
2022-12-29T11:48:59.216Z,498.02
2022-12-29T11:49:59.210Z,514.42
2022-12-29T11:50:59.194Z,519.59
2022-12-29T11:51:59.201Z,511.67
2022-12-29T11:52:59.182Z,497.28
2022-12-29T11:53:59.164Z,496.91
2022-12-29T11:54:59.144Z,505.89
2022-12-29T11:55:59.169Z,508.58
2022-12-29T11:56:59.152Z,501.36
2022-12-29T11:57:59.122Z,510.89
2022-12-29T11:58:59.099Z,515.21
2022-12-29T11:59:59.110Z,517.99
2022-12-29T12:00:59.075Z,527.75
2022-12-29T12:01:59.271Z,533.20
2022-12-29T12:02:59.086Z,539.62
2022-12-29T12:03:59.101Z,541.80
2022-12-29T12:04:59.025Z,564.56
2022-12-29T12:05:59.034Z,579.16
2022-12-29T12:06:59.006Z,583.69
2022-12-29T12:07:59.029Z,589.84
2022-12-29T12:08:58.983Z,591.92
2022-12-29T12:10:04.813Z,598.78
2022-12-29T12:10:59.949Z,600.38
2022-12-29T12:11:58.984Z,596.12
2022-12-29T12:12:58.940Z,588.81
2022-12-29T12:13:58.942Z,590.88
2022-12-29T12:14:58.970Z,582.68
2022-12-29T12:15:59.012Z,584.71
2022-12-29T12:16:58.944Z,583.69
2022-12-29T12:17:58.897Z,592.44
2022-12-29T12:18:58.867Z,594.54
2022-12-29T12:19:58.873Z,598.78
2022-12-29T12:20:58.843Z,593.49
2022-12-29T12:21:58.860Z,589.84
2022-12-29T12:22:58.835Z,580.66
2022-12-29T12:23:58.831Z,571.28
2022-12-29T12:24:58.800Z,569.34
2022-12-29T12:25:58.799Z,582.68
2022-12-29T12:26:58.803Z,591.92
2022-12-29T12:27:58.787Z,592.44
2022-12-29T12:28:58.758Z,594.54
2022-12-29T12:29:58.770Z,597.18
2022-12-29T12:30:58.807Z,595.59
2022-12-29T12:31:58.755Z,605.80
2022-12-29T12:32:58.736Z,602.00
2022-12-29T12:33:58.730Z,595.59
2022-12-29T12:34:58.681Z,599.31
2022-12-29T12:35:58.689Z,600.38
2022-12-29T12:36:58.682Z,603.08
2022-12-29T12:37:58.689Z,595.59
2022-12-29T12:38:58.654Z,590.36
2022-12-29T12:39:58.649Z,578.66
2022-12-29T12:40:58.620Z,581.67